sensor_id;sensor_type;location;lat;lon;timestamp;temperature;humidity
3678;DHT22;1855;50.934;6.958;2023-05-27T00:01:17;13.10;71.20
3678;DHT22;1855;50.934;6.958;2023-05-27T00:03:45;13.00;71.20
3678;DHT22;1855;50.934;6.958;2023-05-27T00:06:12;13.00;71.30
3678;DHT22;1855;50.934;6.958;2023-05-27T00:08:38;13.00;71.80
3678;DHT22;1855;50.934;6.958;2023-05-27T00:11:05;12.90;71.80
3678;DHT22;1855;50.934;6.958;2023-05-27T00:13:32;12.90;72.00
3678;DHT22;1855;50.934;6.958;2023-05-27T00:16:00;12.90;72.10
3678;DHT22;1855;50.934;6.958;2023-05-27T00:18:26;12.90;72.30
3678;DHT22;1855;50.934;6.958;2023-05-27T00:20:53;12.80;72.40
3678;DHT22;1855;50.934;6.958;2023-05-27T00:23:20;12.90;72.30
3678;DHT22;1855;50.934;6.958;2023-05-27T00:25:47;12.80;72.50
3678;DHT22;1855;50.934;6.958;2023-05-27T00:28:13;12.80;72.90
3678;DHT22;1855;50.934;6.958;2023-05-27T00:30:40;12.80;73.30
3678;DHT22;1855;50.934;6.958;2023-05-27T00:33:08;12.80;72.50
3678;DHT22;1855;50.934;6.958;2023-05-27T00:35:35;12.70;72.40
3678;DHT22;1855;50.934;6.958;2023-05-27T00:38:04;12.70;73.50
3678;DHT22;1855;50.934;6.958;2023-05-27T00:40:31;12.60;73.50
3678;DHT22;1855;50.934;6.958;2023-05-27T00:42:58;12.60;74.20
3678;DHT22;1855;50.934;6.958;2023-05-27T00:45:25;12.60;74.30
3678;DHT22;1855;50.934;6.958;2023-05-27T00:47:52;12.60;74.60
3678;DHT22;1855;50.934;6.958;2023-05-27T00:50:20;12.60;74.80
3678;DHT22;1855;50.934;6.958;2023-05-27T00:52:47;12.60;74.70
3678;DHT22;1855;50.934;6.958;2023-05-27T00:55:14;12.60;75.20
3678;DHT22;1855;50.934;6.958;2023-05-27T00:57:41;12.60;75.00
3678;DHT22;1855;50.934;6.958;2023-05-27T01:00:10;12.60;75.50
3678;DHT22;1855;50.934;6.958;2023-05-27T01:02:37;12.60;74.90
3678;DHT22;1855;50.934;6.958;2023-05-27T01:05:07;12.50;74.30
3678;DHT22;1855;50.934;6.958;2023-05-27T01:07:43;12.50;75.10
3678;DHT22;1855;50.934;6.958;2023-05-27T01:10:19;12.40;75.40
3678;DHT22;1855;50.934;6.958;2023-05-27T01:12:58;12.40;75.90
3678;DHT22;1855;50.934;6.958;2023-05-27T01:15:26;12.30;75.80
3678;DHT22;1855;50.934;6.958;2023-05-27T01:17:55;12.30;76.40
3678;DHT22;1855;50.934;6.958;2023-05-27T01:20:23;12.30;76.20
3678;DHT22;1855;50.934;6.958;2023-05-27T01:22:51;12.30;76.20
3678;DHT22;1855;50.934;6.958;2023-05-27T01:25:18;12.20;76.60
3678;DHT22;1855;50.934;6.958;2023-05-27T01:27:46;12.20;76.50
3678;DHT22;1855;50.934;6.958;2023-05-27T01:30:13;12.20;77.70
3678;DHT22;1855;50.934;6.958;2023-05-27T01:32:45;12.10;77.60
3678;DHT22;1855;50.934;6.958;2023-05-27T01:35:19;12.10;77.60
3678;DHT22;1855;50.934;6.958;2023-05-27T01:37:52;12.00;77.40
3678;DHT22;1855;50.934;6.958;2023-05-27T01:40:21;12.10;77.60
3678;DHT22;1855;50.934;6.958;2023-05-27T01:42:48;12.00;77.70
3678;DHT22;1855;50.934;6.958;2023-05-27T01:45:15;12.00;78.40
3678;DHT22;1855;50.934;6.958;2023-05-27T01:47:42;12.00;78.20
3678;DHT22;1855;50.934;6.958;2023-05-27T01:50:09;12.00;78.50
3678;DHT22;1855;50.934;6.958;2023-05-27T01:52:36;12.00;79.10
3678;DHT22;1855;50.934;6.958;2023-05-27T01:55:05;12.00;78.80
3678;DHT22;1855;50.934;6.958;2023-05-27T01:57:33;12.00;79.60
3678;DHT22;1855;50.934;6.958;2023-05-27T02:00:00;12.00;80.00
3678;DHT22;1855;50.934;6.958;2023-05-27T02:02:26;11.90;79.90
3678;DHT22;1855;50.934;6.958;2023-05-27T02:04:53;11.90;79.90
3678;DHT22;1855;50.934;6.958;2023-05-27T02:07:20;11.80;80.80
3678;DHT22;1855;50.934;6.958;2023-05-27T02:09:48;11.80;81.00
3678;DHT22;1855;50.934;6.958;2023-05-27T02:12:16;11.80;81.40
3678;DHT22;1855;50.934;6.958;2023-05-27T02:14:43;11.80;81.20
3678;DHT22;1855;50.934;6.958;2023-05-27T02:17:10;11.70;81.10
3678;DHT22;1855;50.934;6.958;2023-05-27T02:19:37;11.70;81.90
3678;DHT22;1855;50.934;6.958;2023-05-27T02:22:04;11.70;82.10
3678;DHT22;1855;50.934;6.958;2023-05-27T02:24:30;11.70;82.00
3678;DHT22;1855;50.934;6.958;2023-05-27T02:26:57;11.70;82.60
3678;DHT22;1855;50.934;6.958;2023-05-27T02:29:25;11.70;83.00
3678;DHT22;1855;50.934;6.958;2023-05-27T02:31:52;11.70;82.80
3678;DHT22;1855;50.934;6.958;2023-05-27T02:34:19;11.60;83.20
3678;DHT22;1855;50.934;6.958;2023-05-27T02:36:45;11.60;83.30
3678;DHT22;1855;50.934;6.958;2023-05-27T02:39:12;11.60;83.40
3678;DHT22;1855;50.934;6.958;2023-05-27T02:41:39;11.60;83.90
3678;DHT22;1855;50.934;6.958;2023-05-27T02:44:06;11.50;83.80
3678;DHT22;1855;50.934;6.958;2023-05-27T02:46:34;11.50;84.40
3678;DHT22;1855;50.934;6.958;2023-05-27T02:49:00;11.50;84.10
3678;DHT22;1855;50.934;6.958;2023-05-27T02:51:28;11.50;84.70
3678;DHT22;1855;50.934;6.958;2023-05-27T02:53:55;11.50;84.50
3678;DHT22;1855;50.934;6.958;2023-05-27T02:56:22;11.40;84.50
3678;DHT22;1855;50.934;6.958;2023-05-27T02:58:51;11.40;85.20
3678;DHT22;1855;50.934;6.958;2023-05-27T03:01:18;11.40;85.20
3678;DHT22;1855;50.934;6.958;2023-05-27T03:03:46;11.40;85.30
3678;DHT22;1855;50.934;6.958;2023-05-27T03:06:12;11.30;85.70
3678;DHT22;1855;50.934;6.958;2023-05-27T03:08:39;11.30;86.20
3678;DHT22;1855;50.934;6.958;2023-05-27T03:11:06;11.30;86.20
3678;DHT22;1855;50.934;6.958;2023-05-27T03:13:33;11.30;86.70
3678;DHT22;1855;50.934;6.958;2023-05-27T03:16:00;11.30;86.70
3678;DHT22;1855;50.934;6.958;2023-05-27T03:18:40;11.20;86.80
3678;DHT22;1855;50.934;6.958;2023-05-27T03:21:08;11.20;87.20
3678;DHT22;1855;50.934;6.958;2023-05-27T03:23:34;11.20;87.00
3678;DHT22;1855;50.934;6.958;2023-05-27T03:26:01;11.20;87.60
3678;DHT22;1855;50.934;6.958;2023-05-27T03:28:28;11.20;87.30
3678;DHT22;1855;50.934;6.958;2023-05-27T03:30:55;11.20;87.30
3678;DHT22;1855;50.934;6.958;2023-05-27T03:33:22;11.20;87.50
3678;DHT22;1855;50.934;6.958;2023-05-27T03:35:49;11.20;87.40
3678;DHT22;1855;50.934;6.958;2023-05-27T03:38:17;11.20;87.20
3678;DHT22;1855;50.934;6.958;2023-05-27T03:40:44;11.10;87.10
3678;DHT22;1855;50.934;6.958;2023-05-27T03:43:11;11.10;88.00
3678;DHT22;1855;50.934;6.958;2023-05-27T03:45:37;11.00;88.20
3678;DHT22;1855;50.934;6.958;2023-05-27T03:48:04;11.10;88.80
3678;DHT22;1855;50.934;6.958;2023-05-27T03:50:32;11.00;89.00
3678;DHT22;1855;50.934;6.958;2023-05-27T03:52:59;11.00;88.90
3678;DHT22;1855;50.934;6.958;2023-05-27T03:55:27;11.00;88.80
3678;DHT22;1855;50.934;6.958;2023-05-27T03:57:54;11.00;89.10
3678;DHT22;1855;50.934;6.958;2023-05-27T04:00:21;11.00;88.80
3678;DHT22;1855;50.934;6.958;2023-05-27T04:02:48;11.00;89.50
3678;DHT22;1855;50.934;6.958;2023-05-27T04:05:15;11.00;88.50
3678;DHT22;1855;50.934;6.958;2023-05-27T04:07:42;10.90;88.80
3678;DHT22;1855;50.934;6.958;2023-05-27T04:10:09;10.90;88.90
3678;DHT22;1855;50.934;6.958;2023-05-27T04:12:38;10.90;89.00
3678;DHT22;1855;50.934;6.958;2023-05-27T04:15:06;11.00;88.90
3678;DHT22;1855;50.934;6.958;2023-05-27T04:17:33;10.90;89.20
3678;DHT22;1855;50.934;6.958;2023-05-27T04:20:00;11.00;89.50
3678;DHT22;1855;50.934;6.958;2023-05-27T04:22:35;11.00;89.20
3678;DHT22;1855;50.934;6.958;2023-05-27T04:25:02;11.00;88.90
3678;DHT22;1855;50.934;6.958;2023-05-27T04:27:28;11.00;89.30
3678;DHT22;1855;50.934;6.958;2023-05-27T04:29:56;11.00;89.90
3678;DHT22;1855;50.934;6.958;2023-05-27T04:32:24;11.00;89.60
3678;DHT22;1855;50.934;6.958;2023-05-27T04:34:52;11.00;90.00
3678;DHT22;1855;50.934;6.958;2023-05-27T04:37:19;11.00;90.10
3678;DHT22;1855;50.934;6.958;2023-05-27T04:39:46;11.00;90.10
3678;DHT22;1855;50.934;6.958;2023-05-27T04:42:13;11.00;89.70
3678;DHT22;1855;50.934;6.958;2023-05-27T04:44:40;11.00;89.80
3678;DHT22;1855;50.934;6.958;2023-05-27T04:47:09;11.10;89.90
3678;DHT22;1855;50.934;6.958;2023-05-27T04:49:36;11.10;89.20
3678;DHT22;1855;50.934;6.958;2023-05-27T04:52:03;11.10;88.40
3678;DHT22;1855;50.934;6.958;2023-05-27T04:54:32;11.10;88.70
3678;DHT22;1855;50.934;6.958;2023-05-27T04:56:59;11.10;88.80
3678;DHT22;1855;50.934;6.958;2023-05-27T04:59:26;11.20;88.40
3678;DHT22;1855;50.934;6.958;2023-05-27T05:02:00;11.20;88.50
3678;DHT22;1855;50.934;6.958;2023-05-27T05:04:37;11.20;88.90
3678;DHT22;1855;50.934;6.958;2023-05-27T05:07:04;11.20;89.70
3678;DHT22;1855;50.934;6.958;2023-05-27T05:09:31;11.20;88.40
3678;DHT22;1855;50.934;6.958;2023-05-27T05:11:58;11.20;89.60
3678;DHT22;1855;50.934;6.958;2023-05-27T05:14:24;11.20;89.20
3678;DHT22;1855;50.934;6.958;2023-05-27T05:16:51;11.30;89.80
3678;DHT22;1855;50.934;6.958;2023-05-27T05:19:18;11.30;89.40
3678;DHT22;1855;50.934;6.958;2023-05-27T05:21:46;11.30;89.30
3678;DHT22;1855;50.934;6.958;2023-05-27T05:24:13;11.40;89.40
3678;DHT22;1855;50.934;6.958;2023-05-27T05:26:40;11.40;89.10
3678;DHT22;1855;50.934;6.958;2023-05-27T05:29:06;11.40;88.10
3678;DHT22;1855;50.934;6.958;2023-05-27T05:31:33;11.40;88.90
3678;DHT22;1855;50.934;6.958;2023-05-27T05:34:00;11.50;88.80
3678;DHT22;1855;50.934;6.958;2023-05-27T05:36:27;11.50;88.20
3678;DHT22;1855;50.934;6.958;2023-05-27T05:38:55;11.50;88.60
3678;DHT22;1855;50.934;6.958;2023-05-27T05:41:21;11.50;88.90
3678;DHT22;1855;50.934;6.958;2023-05-27T05:43:48;11.60;89.30
3678;DHT22;1855;50.934;6.958;2023-05-27T05:46:15;11.60;88.90
3678;DHT22;1855;50.934;6.958;2023-05-27T05:48:42;11.70;88.40
3678;DHT22;1855;50.934;6.958;2023-05-27T05:51:08;11.70;88.20
3678;DHT22;1855;50.934;6.958;2023-05-27T05:53:35;11.70;88.80
3678;DHT22;1855;50.934;6.958;2023-05-27T05:56:03;11.80;88.70
3678;DHT22;1855;50.934;6.958;2023-05-27T05:58:30;11.80;88.00
3678;DHT22;1855;50.934;6.958;2023-05-27T06:00:57;11.90;85.80
3678;DHT22;1855;50.934;6.958;2023-05-27T06:03:24;11.90;85.10
3678;DHT22;1855;50.934;6.958;2023-05-27T06:05:50;12.00;85.30
3678;DHT22;1855;50.934;6.958;2023-05-27T06:08:17;12.00;84.90
3678;DHT22;1855;50.934;6.958;2023-05-27T06:10:44;12.10;82.80
3678;DHT22;1855;50.934;6.958;2023-05-27T06:13:12;12.10;81.60
3678;DHT22;1855;50.934;6.958;2023-05-27T06:15:39;12.20;81.50
3678;DHT22;1855;50.934;6.958;2023-05-27T06:18:06;12.20;81.60
3678;DHT22;1855;50.934;6.958;2023-05-27T06:20:32;12.30;81.90
3678;DHT22;1855;50.934;6.958;2023-05-27T06:22:59;12.40;79.70
3678;DHT22;1855;50.934;6.958;2023-05-27T06:25:26;12.40;80.20
3678;DHT22;1855;50.934;6.958;2023-05-27T06:27:53;12.50;81.60
3678;DHT22;1855;50.934;6.958;2023-05-27T06:30:21;12.50;82.10
3678;DHT22;1855;50.934;6.958;2023-05-27T06:32:48;12.60;80.50
3678;DHT22;1855;50.934;6.958;2023-05-27T06:35:14;12.70;78.90
3678;DHT22;1855;50.934;6.958;2023-05-27T06:37:41;12.70;79.00
3678;DHT22;1855;50.934;6.958;2023-05-27T06:40:09;12.90;76.50
3678;DHT22;1855;50.934;6.958;2023-05-27T06:42:36;12.90;76.80
3678;DHT22;1855;50.934;6.958;2023-05-27T06:45:03;13.00;76.60
3678;DHT22;1855;50.934;6.958;2023-05-27T06:47:31;13.10;76.30
3678;DHT22;1855;50.934;6.958;2023-05-27T06:49:58;13.10;75.60
3678;DHT22;1855;50.934;6.958;2023-05-27T06:52:25;13.20;74.80
3678;DHT22;1855;50.934;6.958;2023-05-27T06:54:52;13.30;75.30
3678;DHT22;1855;50.934;6.958;2023-05-27T06:57:18;13.40;74.80
3678;DHT22;1855;50.934;6.958;2023-05-27T06:59:45;13.40;74.50
3678;DHT22;1855;50.934;6.958;2023-05-27T07:02:12;13.60;74.20
3678;DHT22;1855;50.934;6.958;2023-05-27T07:04:40;13.80;73.30
3678;DHT22;1855;50.934;6.958;2023-05-27T07:07:07;13.90;72.40
3678;DHT22;1855;50.934;6.958;2023-05-27T07:09:34;14.10;71.50
3678;DHT22;1855;50.934;6.958;2023-05-27T07:12:01;14.20;71.40
3678;DHT22;1855;50.934;6.958;2023-05-27T07:14:28;14.30;70.40
3678;DHT22;1855;50.934;6.958;2023-05-27T07:16:54;14.40;70.70
3678;DHT22;1855;50.934;6.958;2023-05-27T07:19:21;14.60;69.10
3678;DHT22;1855;50.934;6.958;2023-05-27T07:21:50;14.70;67.80
3678;DHT22;1855;50.934;6.958;2023-05-27T07:24:17;14.90;67.10
3678;DHT22;1855;50.934;6.958;2023-05-27T07:26:43;15.00;67.50
3678;DHT22;1855;50.934;6.958;2023-05-27T07:29:10;15.10;67.00
3678;DHT22;1855;50.934;6.958;2023-05-27T07:31:37;15.30;66.00
3678;DHT22;1855;50.934;6.958;2023-05-27T07:34:04;15.30;65.70
3678;DHT22;1855;50.934;6.958;2023-05-27T07:36:30;15.40;65.70
3678;DHT22;1855;50.934;6.958;2023-05-27T07:38:59;15.60;65.40
3678;DHT22;1855;50.934;6.958;2023-05-27T07:41:26;15.80;64.70
3678;DHT22;1855;50.934;6.958;2023-05-27T07:43:55;16.00;63.20
3678;DHT22;1855;50.934;6.958;2023-05-27T07:46:22;16.20;62.70
3678;DHT22;1855;50.934;6.958;2023-05-27T07:48:49;16.30;61.80
3678;DHT22;1855;50.934;6.958;2023-05-27T07:51:15;16.40;61.20
3678;DHT22;1855;50.934;6.958;2023-05-27T07:53:42;16.50;61.20
3678;DHT22;1855;50.934;6.958;2023-05-27T07:56:10;16.60;61.10
3678;DHT22;1855;50.934;6.958;2023-05-27T07:58:37;16.90;60.60
3678;DHT22;1855;50.934;6.958;2023-05-27T08:01:04;17.00;58.70
3678;DHT22;1855;50.934;6.958;2023-05-27T08:03:30;17.10;58.60
3678;DHT22;1855;50.934;6.958;2023-05-27T08:05:57;17.20;58.90
3678;DHT22;1855;50.934;6.958;2023-05-27T08:08:24;17.40;57.30
3678;DHT22;1855;50.934;6.958;2023-05-27T08:10:51;17.50;56.30
3678;DHT22;1855;50.934;6.958;2023-05-27T08:13:19;17.60;56.00
3678;DHT22;1855;50.934;6.958;2023-05-27T08:15:46;17.70;55.90
3678;DHT22;1855;50.934;6.958;2023-05-27T08:18:13;17.90;55.80
3678;DHT22;1855;50.934;6.958;2023-05-27T08:20:40;18.10;54.90
3678;DHT22;1855;50.934;6.958;2023-05-27T08:23:07;18.40;53.00
3678;DHT22;1855;50.934;6.958;2023-05-27T08:25:33;18.40;52.10
3678;DHT22;1855;50.934;6.958;2023-05-27T08:28:00;18.50;52.30
3678;DHT22;1855;50.934;6.958;2023-05-27T08:30:30;18.70;52.20
3678;DHT22;1855;50.934;6.958;2023-05-27T08:32:57;18.80;52.10
3678;DHT22;1855;50.934;6.958;2023-05-27T08:35:24;18.80;51.30
3678;DHT22;1855;50.934;6.958;2023-05-27T08:37:51;18.90;51.50
3678;DHT22;1855;50.934;6.958;2023-05-27T08:40:19;19.10;50.60
3678;DHT22;1855;50.934;6.958;2023-05-27T08:42:46;19.30;50.50
3678;DHT22;1855;50.934;6.958;2023-05-27T08:45:14;19.60;49.70
3678;DHT22;1855;50.934;6.958;2023-05-27T08:47:42;19.90;48.40
3678;DHT22;1855;50.934;6.958;2023-05-27T08:50:10;20.10;47.40
3678;DHT22;1855;50.934;6.958;2023-05-27T08:52:44;20.20;47.30
3678;DHT22;1855;50.934;6.958;2023-05-27T08:55:15;20.40;47.40
3678;DHT22;1855;50.934;6.958;2023-05-27T08:57:43;20.50;46.80
3678;DHT22;1855;50.934;6.958;2023-05-27T09:00:11;20.70;46.40
3678;DHT22;1855;50.934;6.958;2023-05-27T09:02:39;20.90;45.20
3678;DHT22;1855;50.934;6.958;2023-05-27T09:05:08;20.90;43.30
3678;DHT22;1855;50.934;6.958;2023-05-27T09:07:35;20.90;44.20
3678;DHT22;1855;50.934;6.958;2023-05-27T09:10:04;21.00;44.70
3678;DHT22;1855;50.934;6.958;2023-05-27T09:12:32;21.10;44.50
3678;DHT22;1855;50.934;6.958;2023-05-27T09:14:58;21.30;43.80
3678;DHT22;1855;50.934;6.958;2023-05-27T09:17:26;21.50;44.50
3678;DHT22;1855;50.934;6.958;2023-05-27T09:19:53;21.70;41.90
3678;DHT22;1855;50.934;6.958;2023-05-27T09:22:23;21.80;42.70
3678;DHT22;1855;50.934;6.958;2023-05-27T09:24:52;21.90;41.20
3678;DHT22;1855;50.934;6.958;2023-05-27T09:27:24;21.90;42.10
3678;DHT22;1855;50.934;6.958;2023-05-27T09:29:51;22.10;42.10
3678;DHT22;1855;50.934;6.958;2023-05-27T09:32:24;22.30;41.70
3678;DHT22;1855;50.934;6.958;2023-05-27T09:34:51;22.60;39.70
3678;DHT22;1855;50.934;6.958;2023-05-27T09:37:18;22.70;39.30
3678;DHT22;1855;50.934;6.958;2023-05-27T09:39:47;22.70;39.30
3678;DHT22;1855;50.934;6.958;2023-05-27T09:42:14;22.80;40.00
3678;DHT22;1855;50.934;6.958;2023-05-27T09:44:41;22.90;39.50
3678;DHT22;1855;50.934;6.958;2023-05-27T09:47:16;23.00;39.70
3678;DHT22;1855;50.934;6.958;2023-05-27T09:49:43;23.20;38.20
3678;DHT22;1855;50.934;6.958;2023-05-27T09:52:11;23.40;36.90
3678;DHT22;1855;50.934;6.958;2023-05-27T09:54:39;23.30;37.60
3678;DHT22;1855;50.934;6.958;2023-05-27T09:57:08;23.50;37.30
3678;DHT22;1855;50.934;6.958;2023-05-27T09:59:37;23.60;37.00
3678;DHT22;1855;50.934;6.958;2023-05-27T10:02:06;23.70;36.50
3678;DHT22;1855;50.934;6.958;2023-05-27T10:04:34;23.90;36.70
3678;DHT22;1855;50.934;6.958;2023-05-27T10:07:02;24.10;36.30
3678;DHT22;1855;50.934;6.958;2023-05-27T10:09:29;24.20;35.60
3678;DHT22;1855;50.934;6.958;2023-05-27T10:11:57;24.40;33.40
3678;DHT22;1855;50.934;6.958;2023-05-27T10:14:25;24.30;34.50
3678;DHT22;1855;50.934;6.958;2023-05-27T10:16:53;24.40;35.10
3678;DHT22;1855;50.934;6.958;2023-05-27T10:19:22;24.60;34.90
3678;DHT22;1855;50.934;6.958;2023-05-27T10:21:49;24.80;34.10
3678;DHT22;1855;50.934;6.958;2023-05-27T10:24:15;25.00;32.40
3678;DHT22;1855;50.934;6.958;2023-05-27T10:26:43;25.10;32.10
3678;DHT22;1855;50.934;6.958;2023-05-27T10:29:15;25.20;31.50
3678;DHT22;1855;50.934;6.958;2023-05-27T10:31:47;25.50;31.00
3678;DHT22;1855;50.934;6.958;2023-05-27T10:34:15;25.60;31.20
3678;DHT22;1855;50.934;6.958;2023-05-27T10:36:43;25.70;30.50
3678;DHT22;1855;50.934;6.958;2023-05-27T10:39:15;25.90;30.40
3678;DHT22;1855;50.934;6.958;2023-05-27T10:41:48;26.00;30.30
3678;DHT22;1855;50.934;6.958;2023-05-27T10:44:25;26.00;30.20
3678;DHT22;1855;50.934;6.958;2023-05-27T10:46:59;26.00;30.70
3678;DHT22;1855;50.934;6.958;2023-05-27T10:49:26;26.00;29.70
3678;DHT22;1855;50.934;6.958;2023-05-27T10:52:04;26.00;29.60
3678;DHT22;1855;50.934;6.958;2023-05-27T10:54:34;26.10;30.20
3678;DHT22;1855;50.934;6.958;2023-05-27T10:57:02;26.20;30.00
3678;DHT22;1855;50.934;6.958;2023-05-27T10:59:37;26.30;29.60
3678;DHT22;1855;50.934;6.958;2023-05-27T11:02:07;26.50;29.40
3678;DHT22;1855;50.934;6.958;2023-05-27T11:04:34;26.60;28.30
3678;DHT22;1855;50.934;6.958;2023-05-27T11:07:01;26.50;28.50
3678;DHT22;1855;50.934;6.958;2023-05-27T11:09:28;26.50;29.00
3678;DHT22;1855;50.934;6.958;2023-05-27T11:11:56;26.60;28.50
3678;DHT22;1855;50.934;6.958;2023-05-27T11:14:23;26.80;28.30
3678;DHT22;1855;50.934;6.958;2023-05-27T11:16:50;26.70;27.80
3678;DHT22;1855;50.934;6.958;2023-05-27T11:19:19;26.60;28.20
3678;DHT22;1855;50.934;6.958;2023-05-27T11:21:47;26.70;28.10
3678;DHT22;1855;50.934;6.958;2023-05-27T11:24:14;27.00;27.80
3678;DHT22;1855;50.934;6.958;2023-05-27T11:26:42;27.20;28.10
3678;DHT22;1855;50.934;6.958;2023-05-27T11:29:11;27.20;28.10
3678;DHT22;1855;50.934;6.958;2023-05-27T11:31:38;27.30;27.50
3678;DHT22;1855;50.934;6.958;2023-05-27T11:34:11;27.40;27.60
3678;DHT22;1855;50.934;6.958;2023-05-27T11:36:41;27.50;27.60
3678;DHT22;1855;50.934;6.958;2023-05-27T11:39:10;27.60;27.10
3678;DHT22;1855;50.934;6.958;2023-05-27T11:41:48;27.80;27.00
3678;DHT22;1855;50.934;6.958;2023-05-27T11:44:17;27.80;25.90
3678;DHT22;1855;50.934;6.958;2023-05-27T11:46:45;28.10;26.10
3678;DHT22;1855;50.934;6.958;2023-05-27T11:49:13;28.30;25.60
3678;DHT22;1855;50.934;6.958;2023-05-27T11:51:43;28.10;24.90
3678;DHT22;1855;50.934;6.958;2023-05-27T11:54:18;28.00;25.00
3678;DHT22;1855;50.934;6.958;2023-05-27T11:56:46;28.10;25.90
3678;DHT22;1855;50.934;6.958;2023-05-27T11:59:12;28.40;25.40
3678;DHT22;1855;50.934;6.958;2023-05-27T12:01:40;28.50;25.00
3678;DHT22;1855;50.934;6.958;2023-05-27T12:04:06;28.40;25.40
3678;DHT22;1855;50.934;6.958;2023-05-27T12:06:33;28.30;24.70
3678;DHT22;1855;50.934;6.958;2023-05-27T12:09:02;28.20;25.20
3678;DHT22;1855;50.934;6.958;2023-05-27T12:11:29;28.30;25.20
3678;DHT22;1855;50.934;6.958;2023-05-27T12:13:57;28.60;24.80
3678;DHT22;1855;50.934;6.958;2023-05-27T12:16:24;28.60;25.30
3678;DHT22;1855;50.934;6.958;2023-05-27T12:18:51;28.80;24.50
3678;DHT22;1855;50.934;6.958;2023-05-27T12:21:18;28.80;25.00
3678;DHT22;1855;50.934;6.958;2023-05-27T12:23:45;29.20;24.60
3678;DHT22;1855;50.934;6.958;2023-05-27T12:26:14;29.70;24.30
3678;DHT22;1855;50.934;6.958;2023-05-27T12:28:41;30.10;23.80
3678;DHT22;1855;50.934;6.958;2023-05-27T12:31:08;29.90;23.70
3678;DHT22;1855;50.934;6.958;2023-05-27T12:33:35;29.60;23.60
3678;DHT22;1855;50.934;6.958;2023-05-27T12:36:03;29.50;23.50
3678;DHT22;1855;50.934;6.958;2023-05-27T12:38:31;29.30;23.60
3678;DHT22;1855;50.934;6.958;2023-05-27T12:40:57;29.30;23.80
3678;DHT22;1855;50.934;6.958;2023-05-27T12:43:25;29.50;24.20
3678;DHT22;1855;50.934;6.958;2023-05-27T12:45:52;29.90;23.60
3678;DHT22;1855;50.934;6.958;2023-05-27T12:48:19;30.30;23.10
3678;DHT22;1855;50.934;6.958;2023-05-27T12:50:46;31.00;22.90
3678;DHT22;1855;50.934;6.958;2023-05-27T12:53:13;31.70;22.00
3678;DHT22;1855;50.934;6.958;2023-05-27T12:55:42;32.20;21.40
3678;DHT22;1855;50.934;6.958;2023-05-27T12:58:10;32.20;20.90
3678;DHT22;1855;50.934;6.958;2023-05-27T13:00:38;32.00;21.40
3678;DHT22;1855;50.934;6.958;2023-05-27T13:03:05;32.00;20.90
3678;DHT22;1855;50.934;6.958;2023-05-27T13:05:32;32.10;21.90
3678;DHT22;1855;50.934;6.958;2023-05-27T13:07:59;32.40;21.70
3678;DHT22;1855;50.934;6.958;2023-05-27T13:10:27;32.80;20.90
3678;DHT22;1855;50.934;6.958;2023-05-27T13:12:54;32.80;20.30
3678;DHT22;1855;50.934;6.958;2023-05-27T13:15:21;32.50;20.80
3678;DHT22;1855;50.934;6.958;2023-05-27T13:17:51;32.30;20.70
3678;DHT22;1855;50.934;6.958;2023-05-27T13:20:19;32.20;21.00
3678;DHT22;1855;50.934;6.958;2023-05-27T13:22:46;31.90;19.60
3678;DHT22;1855;50.934;6.958;2023-05-27T13:25:13;31.50;18.90
3678;DHT22;1855;50.934;6.958;2023-05-27T13:27:42;31.10;19.80
3678;DHT22;1855;50.934;6.958;2023-05-27T13:30:12;31.00;19.80
3678;DHT22;1855;50.934;6.958;2023-05-27T13:32:39;31.10;19.80
3678;DHT22;1855;50.934;6.958;2023-05-27T13:35:07;31.20;20.30
3678;DHT22;1855;50.934;6.958;2023-05-27T13:37:34;31.30;20.90
3678;DHT22;1855;50.934;6.958;2023-05-27T13:40:01;31.50;21.20
3678;DHT22;1855;50.934;6.958;2023-05-27T13:42:28;31.80;21.20
3678;DHT22;1855;50.934;6.958;2023-05-27T13:44:54;32.10;20.30
3678;DHT22;1855;50.934;6.958;2023-05-27T13:47:21;32.40;20.50
3678;DHT22;1855;50.934;6.958;2023-05-27T13:49:48;32.70;19.90
3678;DHT22;1855;50.934;6.958;2023-05-27T13:52:16;33.00;19.40
3678;DHT22;1855;50.934;6.958;2023-05-27T13:54:43;33.20;18.80
3678;DHT22;1855;50.934;6.958;2023-05-27T13:57:10;33.40;18.90
3678;DHT22;1855;50.934;6.958;2023-05-27T13:59:36;33.80;18.50
3678;DHT22;1855;50.934;6.958;2023-05-27T14:02:03;34.20;18.30
3678;DHT22;1855;50.934;6.958;2023-05-27T14:04:31;34.60;17.70
3678;DHT22;1855;50.934;6.958;2023-05-27T14:06:58;35.30;17.60
3678;DHT22;1855;50.934;6.958;2023-05-27T14:09:26;35.40;16.90
3678;DHT22;1855;50.934;6.958;2023-05-27T14:11:53;35.10;17.00
3678;DHT22;1855;50.934;6.958;2023-05-27T14:14:20;35.30;17.20
3678;DHT22;1855;50.934;6.958;2023-05-27T14:16:47;35.90;17.40
3678;DHT22;1855;50.934;6.958;2023-05-27T14:19:14;36.40;17.10
3678;DHT22;1855;50.934;6.958;2023-05-27T14:21:40;36.40;16.80
3678;DHT22;1855;50.934;6.958;2023-05-27T14:24:07;36.70;16.90
3678;DHT22;1855;50.934;6.958;2023-05-27T14:26:35;37.10;16.90
3678;DHT22;1855;50.934;6.958;2023-05-27T14:29:02;37.30;16.90
3678;DHT22;1855;50.934;6.958;2023-05-27T14:31:29;37.40;16.70
3678;DHT22;1855;50.934;6.958;2023-05-27T14:33:55;37.40;16.10
3678;DHT22;1855;50.934;6.958;2023-05-27T14:36:22;37.10;16.50
3678;DHT22;1855;50.934;6.958;2023-05-27T14:38:49;36.90;16.30
3678;DHT22;1855;50.934;6.958;2023-05-27T14:41:15;36.70;16.60
3678;DHT22;1855;50.934;6.958;2023-05-27T14:43:43;36.70;16.50
3678;DHT22;1855;50.934;6.958;2023-05-27T14:46:10;36.70;16.70
3678;DHT22;1855;50.934;6.958;2023-05-27T14:48:37;36.60;17.00
3678;DHT22;1855;50.934;6.958;2023-05-27T14:51:04;36.40;16.70
3678;DHT22;1855;50.934;6.958;2023-05-27T14:53:31;36.20;16.90
3678;DHT22;1855;50.934;6.958;2023-05-27T14:55:57;36.20;17.20
3678;DHT22;1855;50.934;6.958;2023-05-27T14:58:24;36.30;17.00
3678;DHT22;1855;50.934;6.958;2023-05-27T15:00:52;36.20;16.80
3678;DHT22;1855;50.934;6.958;2023-05-27T15:03:19;36.10;16.50
3678;DHT22;1855;50.934;6.958;2023-05-27T15:05:46;35.70;16.70
3678;DHT22;1855;50.934;6.958;2023-05-27T15:08:13;35.30;17.30
3678;DHT22;1855;50.934;6.958;2023-05-27T15:10:41;35.30;17.20
3678;DHT22;1855;50.934;6.958;2023-05-27T15:13:09;35.20;17.10
3678;DHT22;1855;50.934;6.958;2023-05-27T15:15:37;35.20;16.80
3678;DHT22;1855;50.934;6.958;2023-05-27T15:18:06;35.00;17.00
3678;DHT22;1855;50.934;6.958;2023-05-27T15:20:34;35.00;17.00
3678;DHT22;1855;50.934;6.958;2023-05-27T15:23:01;34.90;16.80
3678;DHT22;1855;50.934;6.958;2023-05-27T15:25:28;34.60;17.00
3678;DHT22;1855;50.934;6.958;2023-05-27T15:27:56;34.40;17.50
3678;DHT22;1855;50.934;6.958;2023-05-27T15:30:23;34.40;15.80
3678;DHT22;1855;50.934;6.958;2023-05-27T15:32:50;34.20;15.60
3678;DHT22;1855;50.934;6.958;2023-05-27T15:35:18;34.10;15.60
3678;DHT22;1855;50.934;6.958;2023-05-27T15:37:44;33.80;16.20
3678;DHT22;1855;50.934;6.958;2023-05-27T15:40:12;33.80;17.10
3678;DHT22;1855;50.934;6.958;2023-05-27T15:42:39;33.80;16.30
3678;DHT22;1855;50.934;6.958;2023-05-27T15:45:07;33.90;17.60
3678;DHT22;1855;50.934;6.958;2023-05-27T15:47:34;34.00;16.40
3678;DHT22;1855;50.934;6.958;2023-05-27T15:50:01;33.90;16.30
3678;DHT22;1855;50.934;6.958;2023-05-27T15:52:29;33.80;16.20
3678;DHT22;1855;50.934;6.958;2023-05-27T15:54:56;33.50;16.50
3678;DHT22;1855;50.934;6.958;2023-05-27T15:57:22;33.20;16.40
3678;DHT22;1855;50.934;6.958;2023-05-27T15:59:49;33.10;16.80
3678;DHT22;1855;50.934;6.958;2023-05-27T16:02:16;33.20;17.30
3678;DHT22;1855;50.934;6.958;2023-05-27T16:04:43;33.40;16.50